Pagrindinis puslapis
METAR-TAF:

METAR-TAF

Oro uostai :

Konija, Turkija

platuma: 37-58N, ilguma: 032-33E, Aukštis: 1032 m

Dabartinis oras

Ataskaita buvo paskelbta 58 minutes, ne 07:50 UTC
Vėjas 2 kt nuo kintamojo kryptimis
Temperatūra 3°C
Drėgmė 75%
Slėgis 1019 hPa
Matomumas: 4800 m
Mažai debesys ne aukštis 4000 ft
Su prošvaistėmis ne aukštis 10000 ft
rūkana

METAR: LTAN 240750Z VRB02KT 4800 BR FEW040 BKN100 03/M01 Q1019 BECMG TL0850 8000

Laikas: 11:48 (08:48 UTC)

Prognozė

Ataskaita buvo paskelbta 1 valandą ir 8 minutes, ne 07:40 UTC
Prognozė galioja nuo 24 metu 09 UTC su 24 metu 18 UTC
Vėjas 7 kt iš Pietų
Matomumas 10 km arba daugiau
Mažai debesys ne aukštis 4000 ft
Su prošvaistėmis ne aukštis 10000 ft

TAF: LTAN 240740Z 2409/2418 18007KT 9999 FEW040 BKN100

Orai ataskaitas ir orų prognozės (METAR, TAF).

turimą stotys yra geltonos ir raudonos taškus žemėlapyje.

Perkelti pele per norėdami pamatyti stoties vardą.

Tada spustelėkite, norėdami matyti oro stebėjimo ir prognozės.

Norėdami pakeisti žemėlapį: spustelėkite ant žalios mygtukų su juodo kryžiaus žemyn,; žalią mygtuką su brūkšneliu, jei norite nutolinti; arba žalių rodyklių gretimoms žemėlapius.


METAR-TAF: